Armstrong Mills, Ohio
Current Conditions -  °F | °C
As of 3:53 PM on Tuesday 25 Nov 2014 (Local Time) from KHLG Reporting Station
Clear Clear  
Wind Chill:   Ceiling: Unl
Heat Index:   Visibility: 10mi
Dew Point: -2°   Wind: 10mph
Humidity: 52%   Direction: 280°W
Pressure: 30.06"   Gusts: NA
Location:  39.9375°N, 80.8976°W
Report Text: KHLG 252053Z 28009KT 10SM CLR 07/M02 A3006 RMK AO2 SLP186 T00721022 53012
Loading
Personal Weather Stations






























Interactive Weather Map New forecast layout! Learn more

10-Day Weather Forecast

Advertisements
Track Severe Weather on mobile